KPIH/PIH METAR and TAF weather

Enter ICAO airport designator
Station Type Date Time Source
KPIH METAR 2019/08/21 02:53 UTC NOAA

KPIH 210253Z 19006KT 10SM CLR 23/01 A3002 RMK AO2 SLP119 T02280011 53001


Station Type Date Time Source
KPIH Decoded METAR 2019/08/21 02:53 UTC NOAA

Station name not available
Aug 20, 2019 - 10:53 PM EDT / 2019.08.21 0253 UTC
Wind: from the S (190 degrees) at 7 MPH (6 KT):0
Visibility: 10 mile(s):0
Sky conditions: clear
Temperature: 73.0 F (22.8 C)
Dew Point: 34.0 F (1.1 C)
Relative Humidity: 23%
Pressure (altimeter): 30.02 in. Hg (1016 hPa)
Pressure tendency: 0.00 inches (0.1 hPa) higher than three hours ago
ob: KPIH 210253Z 19006KT 10SM CLR 23/01 A3002 RMK AO2 SLP119 T02280011 53001
cycle: 3

Station Type Date Time Source
KPIH TAF 2019/08/20 18:27 UTC NOAA

TAF KPIH 201724Z 2018/2118 05005KT P6SM FEW200
FM202000 26009KT P6SM FEW200
FM210300 VRB05KT P6SM SKC

Example: see airport list